Time;durP1;ratioP1;P1;durP2;ratioP2;P2;SDS_P1;SDS_P2;PMS_P1;PMS_P2;Temp;Humidity;BMP_temperature;BMP_pressure;BME280_temperature;BME280_humidity;BME280_pressure;Samples;Min_cycle;Max_cycle;Signal;HPM_P1;HPM_P2
2023/03/15 00:00:52;;;;;;;10.85;1.83;;;12.30;99.90;;;;;;7399292;19;19919;-73
2023/03/15 00:03:18;;;;;;;13.20;2.10;;;12.30;99.90;;;;;;7401042;19;19910;-73
2023/03/15 00:05:46;;;;;;;11.13;1.98;;;12.30;99.90;;;;;;7401647;19;19925;-73
2023/03/15 00:08:12;;;;;;;15.30;2.30;;;12.30;99.90;;;;;;7394351;19;19907;-72
2023/03/15 00:10:47;;;;;;;12.02;2.25;;;12.30;99.90;;;;;;7397251;19;20471;-72
2023/03/15 00:13:14;;;;;;;10.65;1.90;;;12.20;99.90;;;;;;7369625;19;19919;-73
2023/03/15 00:15:52;;;;;;;9.20;1.90;;;12.30;99.90;;;;;;7402852;19;20372;-72
2023/03/15 00:18:19;;;;;;;10.70;2.10;;;12.40;99.90;;;;;;7392283;19;19915;-74
2023/03/15 00:20:46;;;;;;;10.88;1.83;;;12.30;99.90;;;;;;7383746;19;19933;-72
2023/03/15 00:23:13;;;;;;;14.00;1.88;;;12.30;99.90;;;;;;7402489;19;19919;-72
2023/03/15 00:25:39;;;;;;;15.32;2.28;;;12.30;99.90;;;;;;7402563;19;19915;-72
2023/03/15 00:28:05;;;;;;;12.07;1.83;;;12.30;99.90;;;;;;7401871;19;19919;-71
2023/03/15 00:30:31;;;;;;;10.20;1.80;;;12.20;99.90;;;;;;7403618;19;19914;-72
2023/03/15 00:32:57;;;;;;;11.32;1.90;;;12.10;99.90;;;;;;7397345;19;20295;-72
2023/03/15 00:35:24;;;;;;;15.38;2.67;;;12.10;99.90;;;;;;7404868;19;19938;-73
2023/03/15 00:37:53;;;;;;;13.85;2.90;;;12.10;99.90;;;;;;7404046;19;20236;-73
2023/03/15 00:40:19;;;;;;;11.40;1.75;;;12.10;99.90;;;;;;7403486;19;19970;-72
2023/03/15 00:42:48;;;;;;;9.85;1.65;;;12.10;99.90;;;;;;7401805;19;19932;-72
2023/03/15 00:45:19;;;;;;;10.30;1.73;;;12.10;99.90;;;;;;7403668;19;19907;-72
2023/03/15 00:47:52;;;;;;;11.43;1.95;;;12.10;99.90;;;;;;7400996;19;19915;-72
2023/03/15 00:50:18;;;;;;;10.43;1.83;;;12.10;99.90;;;;;;7401836;19;19918;-72
2023/03/15 00:52:44;;;;;;;11.48;2.13;;;12.00;99.90;;;;;;7406337;19;19924;-72
2023/03/15 00:55:16;;;;;;;19.45;1.50;;;11.90;99.90;;;;;;7403181;19;20344;-73
2023/03/15 00:57:43;;;;;;;12.65;1.38;;;11.90;99.90;;;;;;7401732;19;20303;-72
2023/03/15 01:00:23;;;;;;;11.07;1.60;;;11.80;99.90;;;;;;7401987;19;19922;-72
2023/03/15 01:02:50;;;;;;;9.98;1.77;;;11.80;99.90;;;;;;7401702;19;19915;-72
2023/03/15 01:05:16;;;;;;;10.23;1.58;;;11.80;99.90;;;;;;7379986;19;19935;-72
2023/03/15 01:07:44;;;;;;;11.68;2.05;;;11.90;99.90;;;;;;7404903;19;19914;-73
2023/03/15 01:10:11;;;;;;;13.10;1.83;;;11.90;99.90;;;;;;7401163;19;20431;-72
2023/03/15 01:12:37;;;;;;;13.70;1.88;;;11.80;99.90;;;;;;7403771;19;19923;-73
2023/03/15 01:15:06;;;;;;;10.65;1.90;;;11.80;99.90;;;;;;7401105;19;19914;-71
2023/03/15 01:17:31;;;;;;;14.57;2.38;;;11.80;99.90;;;;;;7400671;19;19918;-73
2023/03/15 01:19:58;;;;;;;9.25;1.58;;;11.80;99.90;;;;;;7400831;19;19930;-72
2023/03/15 01:22:24;;;;;;;13.30;2.60;;;11.80;99.90;;;;;;7402966;19;19930;-73
2023/03/15 01:24:50;;;;;;;10.23;1.30;;;11.70;99.90;;;;;;7397678;19;19910;-73
2023/03/15 01:27:15;;;;;;;9.35;1.50;;;11.70;99.90;;;;;;7401506;19;19986;-73
2023/03/15 01:29:41;;;;;;;16.27;2.25;;;11.70;99.90;;;;;;7401141;19;19915;-72
2023/03/15 01:32:07;;;;;;;11.07;1.83;;;11.70;99.90;;;;;;7399192;19;19958;-72
2023/03/15 01:34:34;;;;;;;11.68;2.13;;;11.70;99.90;;;;;;7404183;19;20350;-71
2023/03/15 01:37:01;;;;;;;12.63;2.28;;;11.70;99.90;;;;;;7403798;19;19923;-72
2023/03/15 01:39:29;;;;;;;16.42;2.15;;;11.70;99.90;;;;;;7402619;19;19919;-73
2023/03/15 01:41:55;;;;;;;11.48;1.83;;;11.60;99.90;;;;;;7404111;19;20355;-74
2023/03/15 01:44:22;;;;;;;11.50;1.67;;;11.60;99.90;;;;;;7406351;19;19959;-71
2023/03/15 01:46:49;;;;;;;14.25;2.20;;;11.60;99.90;;;;;;7401901;19;19930;-72
2023/03/15 01:49:16;;;;;;;9.85;1.25;;;11.50;99.90;;;;;;7399563;19;19921;-71
2023/03/15 01:52:04;;;;;;;11.88;2.17;;;11.50;99.90;;;;;;7403033;19;19915;-73
2023/03/15 01:54:42;;;;;;;11.30;2.15;;;11.50;99.90;;;;;;7401489;19;19974;-72
2023/03/15 01:57:22;;;;;;;8.98;1.65;;;11.50;99.90;;;;;;7400813;19;19926;-72
2023/03/15 02:00:00;;;;;;;10.52;1.77;;;11.60;99.90;;;;;;7403927;19;19918;-72
2023/03/15 02:02:27;;;;;;;9.93;1.73;;;11.60;99.90;;;;;;7403755;19;19945;-72
2023/03/15 02:05:08;;;;;;;13.95;1.65;;;11.60;99.90;;;;;;7404155;19;19965;-73
2023/03/15 02:07:36;;;;;;;15.35;1.67;;;11.60;99.90;;;;;;7404693;19;19922;-73
2023/03/15 02:10:14;;;;;;;8.75;1.20;;;11.60;99.90;;;;;;7401291;19;19935;-73
2023/03/15 02:12:44;;;;;;;10.07;1.73;;;11.70;99.90;;;;;;7404054;19;19929;-71
2023/03/15 02:15:12;;;;;;;12.43;1.70;;;11.70;99.90;;;;;;7401311;19;19919;-71
2023/03/15 02:17:41;;;;;;;16.35;3.67;;;11.70;99.90;;;;;;7402566;19;19927;-72
2023/03/15 02:20:07;;;;;;;16.58;1.90;;;11.70;99.90;;;;;;7402124;19;19914;-72
2023/03/15 02:22:48;;;;;;;12.57;2.50;;;11.60;99.90;;;;;;7404075;19;20695;-73
2023/03/15 02:25:40;;;;;;;12.57;1.92;;;11.70;99.90;;;;;;7399864;19;19921;-72
2023/03/15 02:28:08;;;;;;;22.73;2.75;;;11.70;99.90;;;;;;7396483;19;19927;-72
2023/03/15 02:30:34;;;;;;;11.55;1.90;;;11.60;99.90;;;;;;7401526;19;20011;-72
2023/03/15 02:33:04;;;;;;;18.02;2.20;;;11.60;99.90;;;;;;7401379;19;19925;-73
2023/03/15 02:35:31;;;;;;;12.98;2.15;;;11.60;99.90;;;;;;7402183;19;19929;-72
2023/03/15 02:38:01;;;;;;;13.43;2.10;;;11.60;99.90;;;;;;7401645;19;19982;-72
2023/03/15 02:40:28;;;;;;;9.15;1.33;;;11.60;99.90;;;;;;7402192;19;19929;-72
2023/03/15 02:42:59;;;;;;;;;;;11.60;99.90;;;;;;7407409;19;19927;-73
2023/03/15 02:45:27;;;;;;;12.27;2.17;;;11.60;99.90;;;;;;7414475;19;19918;-73
2023/03/15 02:47:54;;;;;;;12.60;2.25;;;11.50;99.90;;;;;;7407986;19;19911;-72
2023/03/15 02:50:20;;;;;;;11.90;2.13;;;11.50;99.90;;;;;;7412854;19;20323;-73
2023/03/15 02:52:46;;;;;;;13.15;2.20;;;11.40;99.90;;;;;;7416859;19;19938;-72
2023/03/15 02:55:11;;;;;;;14.75;2.28;;;11.40;99.90;;;;;;7382126;19;19914;-72
2023/03/15 02:57:37;;;;;;;13.30;2.42;;;11.30;99.90;;;;;;7416831;19;19938;-72
2023/03/15 03:00:12;;;;;;;15.27;1.95;;;11.30;99.90;;;;;;7411785;19;19915;-73
2023/03/15 03:02:42;;;;;;;13.38;1.80;;;11.30;99.90;;;;;;7414096;19;20343;-72
2023/03/15 03:05:09;;;;;;;18.60;2.45;;;11.30;99.90;;;;;;7414121;19;19929;-72
2023/03/15 03:07:35;;;;;;;14.88;1.85;;;11.30;99.90;;;;;;7415850;19;19918;-72
2023/03/15 03:10:04;;;;;;;11.90;2.10;;;11.30;99.90;;;;;;7413511;19;20247;-72
2023/03/15 03:12:29;;;;;;;14.32;2.05;;;11.40;99.90;;;;;;7413440;19;19978;-72
2023/03/15 03:14:55;;;;;;;13.43;2.05;;;11.40;99.90;;;;;;7413665;19;20249;-73
2023/03/15 03:17:22;;;;;;;14.65;2.30;;;11.40;99.90;;;;;;7412352;19;21680;-72
2023/03/15 03:19:47;;;;;;;13.07;2.13;;;11.40;99.90;;;;;;7414176;19;19922;-72
2023/03/15 03:22:13;;;;;;;15.52;1.92;;;11.40;99.90;;;;;;7412341;19;20274;-72
2023/03/15 03:24:44;;;;;;;12.65;1.63;;;11.40;99.90;;;;;;7415519;19;19914;-72
2023/03/15 03:27:13;;;;;;;15.88;1.90;;;11.40;99.90;;;;;;7413494;19;19914;-72
2023/03/15 03:29:40;;;;;;;16.23;2.40;;;11.50;99.90;;;;;;7413579;19;19922;-73
2023/03/15 03:32:07;;;;;;;21.88;2.50;;;11.50;99.90;;;;;;7413814;19;19994;-73
2023/03/15 03:34:33;;;;;;;14.90;1.92;;;11.50;99.90;;;;;;7414503;19;19915;-73
2023/03/15 03:36:59;;;;;;;20.05;2.20;;;11.50;99.90;;;;;;7414180;19;19985;-72
2023/03/15 03:39:26;;;;;;;13.98;2.03;;;11.50;99.90;;;;;;7410558;19;19947;-72
2023/03/15 03:41:51;;;;;;;10.82;1.80;;;11.60;99.90;;;;;;7413347;19;20259;-71
2023/03/15 03:44:18;;;;;;;14.57;2.13;;;11.50;99.90;;;;;;7410350;19;19915;-72
2023/03/15 03:46:43;;;;;;;15.73;2.28;;;11.50;99.90;;;;;;7413577;19;19942;-72
2023/03/15 03:49:09;;;;;;;14.30;2.25;;;11.40;99.90;;;;;;7414318;19;19922;-72
2023/03/15 03:51:36;;;;;;;15.15;2.03;;;11.30;99.90;;;;;;7412333;19;19974;-72
2023/03/15 03:54:03;;;;;;;11.27;2.00;;;11.30;99.90;;;;;;7411367;19;19914;-73
2023/03/15 03:56:30;;;;;;;14.23;2.05;;;11.30;99.90;;;;;;7405512;19;20228;-72
2023/03/15 03:58:55;;;;;;;17.88;2.15;;;11.20;99.90;;;;;;7405197;19;19919;-72
2023/03/15 04:01:21;;;;;;;16.08;2.55;;;11.10;99.90;;;;;;7402572;19;19978;-72
2023/03/15 04:03:51;;;;;;;11.70;2.67;;;11.10;99.90;;;;;;7403498;19;19925;-73
2023/03/15 04:06:17;;;;;;;12.40;2.47;;;11.00;99.90;;;;;;7402961;19;19918;-72
2023/03/15 04:08:42;;;;;;;12.23;2.53;;;11.00;99.90;;;;;;7405866;19;19922;-73
2023/03/15 04:11:08;;;;;;;15.50;2.33;;;11.00;99.90;;;;;;7402073;19;19923;-73
2023/03/15 04:13:34;;;;;;;19.73;2.75;;;11.00;99.90;;;;;;7405562;19;20398;-73
2023/03/15 04:16:01;;;;;;;13.48;2.30;;;11.00;99.90;;;;;;7406646;19;19928;-72
2023/03/15 04:18:27;;;;;;;14.50;2.63;;;11.00;99.90;;;;;;7403393;19;19922;-72
2023/03/15 04:20:53;;;;;;;13.98;2.22;;;11.00;99.90;;;;;;7404354;19;19934;-72
2023/03/15 04:23:22;;;;;;;14.82;2.20;;;11.10;99.90;;;;;;7381886;19;20319;-72
2023/03/15 04:25:50;;;;;;;21.65;2.40;;;11.20;99.90;;;;;;7403601;19;20341;-72
2023/03/15 04:28:17;;;;;;;13.95;2.40;;;11.20;99.90;;;;;;7402667;19;20612;-72
2023/03/15 04:30:43;;;;;;;12.55;2.22;;;11.20;99.90;;;;;;7406009;19;20262;-73
2023/03/15 04:33:10;;;;;;;10.13;2.13;;;11.20;99.90;;;;;;7403670;19;20314;-72
2023/03/15 04:35:37;;;;;;;26.02;2.67;;;11.20;99.90;;;;;;7407834;19;19915;-72
2023/03/15 04:38:05;;;;;;;12.60;2.08;;;11.20;99.90;;;;;;7405072;19;19915;-72
2023/03/15 04:40:33;;;;;;;27.65;2.67;;;11.20;99.90;;;;;;7405976;19;19922;-71
2023/03/15 04:43:02;;;;;;;11.48;2.10;;;11.30;99.90;;;;;;7405519;19;20223;-72
2023/03/15 04:45:30;;;;;;;12.98;1.90;;;11.40;99.90;;;;;;7405026;19;19949;-72
2023/03/15 04:47:56;;;;;;;12.07;1.75;;;11.40;99.90;;;;;;7404758;19;20327;-73
2023/03/15 04:50:24;;;;;;;12.70;2.20;;;11.50;99.90;;;;;;7404772;19;19931;-72
2023/03/15 04:52:50;;;;;;;14.88;2.45;;;11.60;99.90;;;;;;7404671;19;20335;-72
2023/03/15 04:55:16;;;;;;;14.38;2.10;;;11.60;99.90;;;;;;7373337;19;19935;-73
2023/03/15 04:57:41;;;;;;;14.27;1.92;;;11.80;99.90;;;;;;7405670;19;19926;-72
2023/03/15 05:00:11;;;;;;;12.13;2.17;;;11.80;99.90;;;;;;7402884;19;19914;-72
2023/03/15 05:02:40;;;;;;;14.73;1.80;;;11.90;99.90;;;;;;7405755;19;20342;-71
2023/03/15 05:05:10;;;;;;;8.45;1.63;;;11.90;99.90;;;;;;7404320;19;19915;-72
2023/03/15 05:07:36;;;;;;;12.98;1.88;;;11.90;99.90;;;;;;7402867;19;19922;-71
2023/03/15 05:10:03;;;;;;;9.93;1.38;;;11.90;99.90;;;;;;7401899;19;20347;-72
2023/03/15 05:12:29;;;;;;;11.77;1.80;;;11.90;99.90;;;;;;7404442;19;19921;-72
2023/03/15 05:14:55;;;;;;;13.02;1.77;;;11.90;99.90;;;;;;7402321;19;19918;-72
2023/03/15 05:17:21;;;;;;;13.45;1.83;;;11.90;99.90;;;;;;7401520;19;19954;-72
2023/03/15 05:19:48;;;;;;;12.63;1.88;;;11.90;99.90;;;;;;7402036;19;19923;-73
2023/03/15 05:22:14;;;;;;;;;;;11.80;99.90;;;;;;7405842;19;19925;-72
2023/03/15 05:24:39;;;;;;;10.85;2.35;;;11.70;99.90;;;;;;7404551;19;19906;-73
2023/03/15 05:27:05;;;;;;;10.50;1.95;;;11.60;99.90;;;;;;7402060;19;19997;-72
2023/03/15 05:29:31;;;;;;;13.98;1.83;;;11.60;99.90;;;;;;7405787;19;20351;-74
2023/03/15 05:31:57;;;;;;;10.75;1.63;;;11.60;99.90;;;;;;7402356;19;19955;-72
2023/03/15 05:34:23;;;;;;;13.15;2.55;;;11.60;99.90;;;;;;7401730;19;19931;-72
2023/03/15 05:36:51;;;;;;;13.45;1.75;;;11.50;99.90;;;;;;7402437;19;20572;-72
2023/03/15 05:39:18;;;;;;;10.57;1.50;;;11.50;99.90;;;;;;7402469;19;19925;-74
2023/03/15 05:41:44;;;;;;;14.43;2.80;;;11.50;99.90;;;;;;7402506;19;20055;-73
2023/03/15 05:44:10;;;;;;;13.88;2.17;;;11.50;99.90;;;;;;7402479;19;19926;-72
2023/03/15 05:46:35;;;;;;;15.05;2.17;;;11.60;99.90;;;;;;7401714;19;19918;-72
2023/03/15 05:49:01;;;;;;;8.43;1.90;;;11.60;99.90;;;;;;7402890;19;19906;-72
2023/03/15 05:51:27;;;;;;;14.10;1.98;;;11.60;99.90;;;;;;7402060;19;20556;-72
2023/03/15 05:53:53;;;;;;;12.50;2.15;;;11.60;99.90;;;;;;7402057;19;19917;-72
2023/03/15 05:56:18;;;;;;;13.68;2.15;;;11.70;99.90;;;;;;7401189;19;19919;-75
2023/03/15 05:58:44;;;;;;;9.18;2.15;;;11.60;99.90;;;;;;7400598;19;19928;-74
2023/03/15 06:01:10;;;;;;;12.55;2.05;;;11.60;99.90;;;;;;7398174;19;19943;-73
2023/03/15 06:03:36;;;;;;;15.27;2.00;;;11.50;99.90;;;;;;7382576;19;19918;-74
2023/03/15 06:06:03;;;;;;;11.02;2.10;;;11.40;99.90;;;;;;7403139;19;19936;-73
2023/03/15 06:08:29;;;;;;;11.98;2.03;;;11.30;99.90;;;;;;7403403;19;19926;-72
2023/03/15 06:10:55;;;;;;;10.45;1.85;;;11.30;99.90;;;;;;7401011;19;20239;-74
2023/03/15 06:13:21;;;;;;;18.58;2.67;;;11.30;99.90;;;;;;7399162;19;19918;-73
2023/03/15 06:15:46;;;;;;;14.20;2.30;;;11.20;99.90;;;;;;7401760;19;20627;-74
2023/03/15 06:18:13;;;;;;;10.73;1.58;;;11.20;99.90;;;;;;7399823;19;19917;-73
2023/03/15 06:20:39;;;;;;;13.70;1.70;;;11.20;99.90;;;;;;7400960;19;19918;-72
2023/03/15 06:23:06;;;;;;;10.77;1.85;;;11.10;99.90;;;;;;7402569;19;20370;-72
2023/03/15 06:25:31;;;;;;;13.23;2.05;;;11.20;99.90;;;;;;7401527;19;19933;-73
2023/03/15 06:27:57;;;;;;;7.63;1.73;;;11.20;99.90;;;;;;7402735;19;19966;-74
2023/03/15 06:30:25;;;;;;;15.55;2.47;;;11.20;99.90;;;;;;7401595;19;20419;-74
2023/03/15 06:32:50;;;;;;;11.90;2.97;;;11.20;99.90;;;;;;7371391;19;19919;-74
2023/03/15 06:35:16;;;;;;;8.48;1.92;;;11.20;99.90;;;;;;7398839;19;19922;-72
2023/03/15 06:37:42;;;;;;;9.05;2.25;;;11.30;99.90;;;;;;7397070;19;19918;-72
2023/03/15 06:40:10;;;;;;;8.88;1.20;;;11.30;99.30;;;;;;7399593;19;19949;-72
2023/03/15 06:42:37;;;;;;;10.88;1.70;;;11.30;97.30;;;;;;7400737;19;19931;-73
2023/03/15 06:45:03;;;;;;;5.95;1.20;;;11.30;96.70;;;;;;7401932;19;19914;-74
2023/03/15 06:47:29;;;;;;;6.22;1.00;;;11.30;95.00;;;;;;7398658;19;19915;-74
2023/03/15 06:49:55;;;;;;;6.90;1.08;;;11.40;94.40;;;;;;7402366;19;19922;-74
2023/03/15 06:52:21;;;;;;;8.98;1.15;;;11.40;94.00;;;;;;7400439;19;20296;-72
2023/03/15 06:54:46;;;;;;;7.65;1.25;;;11.50;93.90;;;;;;7401859;19;19919;-72
2023/03/15 06:57:13;;;;;;;10.10;1.25;;;11.50;93.40;;;;;;7399981;19;19952;-72
2023/03/15 06:59:39;;;;;;;5.00;0.88;;;11.60;92.40;;;;;;7399008;19;19919;-74
2023/03/15 07:02:13;;;;;;;6.50;0.82;;;11.60;91.00;;;;;;7397174;19;19934;-73
2023/03/15 07:04:39;;;;;;;3.20;0.90;;;11.60;90.70;;;;;;7400535;19;19922;-73
2023/03/15 07:07:04;;;;;;;5.05;0.85;;;11.70;90.40;;;;;;7400403;19;19942;-72
2023/03/15 07:09:30;;;;;;;5.60;1.33;;;11.80;90.00;;;;;;7401449;19;19921;-72
2023/03/15 07:11:57;;;;;;;4.75;0.98;;;11.90;89.10;;;;;;7401820;19;19923;-73
2023/03/15 07:14:23;;;;;;;5.97;1.15;;;11.90;88.30;;;;;;7397554;19;19988;-73
2023/03/15 07:16:49;;;;;;;7.03;1.13;;;12.00;87.80;;;;;;7399789;19;19910;-72
2023/03/15 07:19:15;;;;;;;4.07;0.93;;;12.00;87.70;;;;;;7400060;19;20339;-72
2023/03/15 07:21:41;;;;;;;5.55;1.20;;;12.20;86.20;;;;;;7397195;19;19922;-71
2023/03/15 07:24:06;;;;;;;7.50;2.58;;;12.30;84.80;;;;;;7398121;19;19983;-72
2023/03/15 07:26:32;;;;;;;4.38;0.80;;;12.30;85.10;;;;;;7401353;19;19919;-71
2023/03/15 07:28:58;;;;;;;4.43;0.93;;;12.50;85.70;;;;;;7402920;19;19922;-71
2023/03/15 07:31:24;;;;;;;10.65;1.83;;;12.60;85.00;;;;;;7402193;19;19918;-73
2023/03/15 07:33:49;;;;;;;13.27;2.13;;;12.70;85.20;;;;;;7406938;19;20310;-74
2023/03/15 07:36:15;;;;;;;12.15;1.65;;;12.80;84.90;;;;;;7406485;19;19986;-72
2023/03/15 07:38:41;;;;;;;6.70;1.20;;;12.90;85.30;;;;;;7406832;19;19919;-72
2023/03/15 07:41:07;;;;;;;8.32;1.30;;;13.00;85.20;;;;;;7405877;19;19918;-72
2023/03/15 07:43:33;;;;;;;6.18;1.40;;;13.20;85.80;;;;;;7406862;19;19942;-71
2023/03/15 07:46:00;;;;;;;5.35;1.05;;;13.20;86.50;;;;;;7406901;19;19917;-73
2023/03/15 07:48:28;;;;;;;6.95;1.80;;;13.30;87.60;;;;;;7406750;19;19914;-72
2023/03/15 07:50:54;;;;;;;5.88;1.33;;;13.30;86.60;;;;;;7404933;19;19957;-73
2023/03/15 07:53:20;;;;;;;5.78;1.23;;;13.40;85.40;;;;;;7406089;19;19926;-73
2023/03/15 07:55:49;;;;;;;9.40;1.45;;;13.40;85.60;;;;;;7404417;19;19939;-74
2023/03/15 07:58:14;;;;;;;5.15;0.90;;;13.50;86.40;;;;;;7406879;19;19946;-75
2023/03/15 08:00:41;;;;;;;7.70;1.02;;;13.50;86.20;;;;;;7406545;19;20276;-72
2023/03/15 08:03:07;;;;;;;4.07;0.80;;;13.40;84.10;;;;;;7375437;19;19926;-73
2023/03/15 08:05:34;;;;;;;8.18;1.13;;;13.40;85.00;;;;;;7405565;19;20778;-72
2023/03/15 08:07:59;;;;;;;;;;;13.50;86.00;;;;;;7387255;19;20267;-73
2023/03/15 08:10:26;;;;;;;6.05;1.00;;;13.60;85.40;;;;;;7403560;19;19948;-73
2023/03/15 08:12:51;;;;;;;7.85;1.30;;;13.70;87.00;;;;;;7406020;19;20258;-74
2023/03/15 08:15:18;;;;;;;8.80;1.40;;;13.70;86.20;;;;;;7401682;19;19922;-73
2023/03/15 08:17:47;;;;;;;6.60;1.60;;;13.70;83.30;;;;;;7397101;19;19918;-73
2023/03/15 08:20:16;;;;;;;6.03;1.02;;;13.70;83.00;;;;;;7402743;19;19930;-72
2023/03/15 08:22:45;;;;;;;3.88;0.88;;;13.70;83.10;;;;;;7385292;19;19923;-73
2023/03/15 08:25:14;;;;;;;6.07;1.02;;;13.60;82.30;;;;;;7403674;19;20343;-73
2023/03/15 08:27:41;;;;;;;5.97;1.15;;;13.50;81.80;;;;;;7407656;19;19918;-74
2023/03/15 08:30:10;;;;;;;5.45;1.30;;;13.70;82.20;;;;;;7404469;19;20043;-74
2023/03/15 08:32:35;;;;;;;5.32;0.93;;;13.90;82.50;;;;;;7406673;19;20337;-73
2023/03/15 08:35:06;;;;;;;6.22;1.40;;;14.00;81.60;;;;;;7401967;19;19903;-73
2023/03/15 08:37:31;;;;;;;7.47;1.42;;;14.10;81.20;;;;;;7405463;19;19914;-73
2023/03/15 08:39:59;;;;;;;7.32;1.20;;;15.10;81.50;;;;;;7407337;19;20519;-73
2023/03/15 08:42:26;;;;;;;9.65;1.40;;;16.90;77.60;;;;;;7404082;19;19927;-73
2023/03/15 08:44:52;;;;;;;5.47;1.42;;;18.00;76.80;;;;;;7394035;19;19911;-73
2023/03/15 08:47:18;;;;;;;5.68;1.60;;;18.80;75.90;;;;;;7400517;19;19917;-74
2023/03/15 08:49:44;;;;;;;6.68;1.23;;;19.00;73.70;;;;;;7405283;19;19918;-73
2023/03/15 08:52:10;;;;;;;8.23;1.40;;;19.30;73.80;;;;;;7401299;19;19927;-73
2023/03/15 08:54:35;;;;;;;9.48;1.92;;;18.50;76.00;;;;;;7395646;19;20018;-73
2023/03/15 08:57:01;;;;;;;9.18;1.85;;;19.70;75.50;;;;;;7398183;19;19925;-72
2023/03/15 08:59:27;;;;;;;8.90;1.80;;;20.40;74.50;;;;;;7372677;19;19918;-73
2023/03/15 09:01:53;;;;;;;10.15;1.88;;;21.50;72.40;;;;;;7389835;19;19929;-73
2023/03/15 09:04:18;;;;;;;11.20;1.88;;;22.10;70.70;;;;;;7397385;19;19998;-72
2023/03/15 09:06:44;;;;;;;7.68;1.95;;;22.40;68.10;;;;;;7404575;19;19921;-73
2023/03/15 09:09:10;;;;;;;9.20;2.10;;;22.80;67.00;;;;;;7399665;19;19944;-73
2023/03/15 09:11:36;;;;;;;7.25;1.50;;;22.80;67.50;;;;;;7390149;19;19926;-72
2023/03/15 09:14:02;;;;;;;9.32;2.78;;;23.00;65.20;;;;;;7383406;19;19922;-75
2023/03/15 09:16:27;;;;;;;8.73;1.60;;;23.30;64.00;;;;;;7402805;19;19914;-72
2023/03/15 09:18:53;;;;;;;5.35;1.60;;;22.50;64.20;;;;;;7390763;19;19925;-73
2023/03/15 09:21:19;;;;;;;8.05;2.15;;;23.10;63.50;;;;;;7378101;19;19919;-73
2023/03/15 09:23:45;;;;;;;6.50;2.00;;;23.80;61.70;;;;;;7400692;19;20273;-75
2023/03/15 09:26:10;;;;;;;6.63;2.17;;;23.40;61.00;;;;;;7392637;19;19932;-73
2023/03/15 09:28:36;;;;;;;6.68;2.17;;;23.80;60.90;;;;;;7385586;19;19915;-74
2023/03/15 09:31:07;;;;;;;8.82;1.80;;;23.70;59.50;;;;;;7393073;19;19924;-73
2023/03/15 09:33:32;;;;;;;6.30;1.98;;;23.90;59.60;;;;;;7396356;19;19935;-74
2023/03/15 09:36:00;;;;;;;7.72;2.42;;;24.00;59.40;;;;;;7397093;19;19926;-75
2023/03/15 09:38:26;;;;;;;6.10;1.73;;;24.80;58.60;;;;;;7351132;19;19930;-73
2023/03/15 09:41:02;;;;;;;6.00;1.80;;;25.20;58.30;;;;;;7403840;19;19906;-75
2023/03/15 09:43:31;;;;;;;5.70;1.77;;;25.00;57.80;;;;;;7405143;19;19930;-75
2023/03/15 09:46:32;;;;;;;7.60;2.03;;;24.90;57.80;;;;;;7400632;19;20255;-73
2023/03/15 09:49:09;;;;;;;7.18;2.17;;;24.90;57.30;;;;;;7404220;19;19919;-73
2023/03/15 09:52:12;;;;;;;7.88;1.95;;;24.90;57.20;;;;;;7402748;19;19923;-73
2023/03/15 09:54:49;;;;;;;12.85;2.53;;;24.60;58.40;;;;;;7400451;19;19945;-73
2023/03/15 09:57:18;;;;;;;7.75;2.03;;;24.30;58.60;;;;;;7405461;19;19914;-74
2023/03/15 09:59:49;;;;;;;9.48;2.20;;;23.30;59.60;;;;;;7404252;19;19919;-75
2023/03/15 10:02:26;;;;;;;9.27;2.25;;;22.30;60.60;;;;;;7404716;19;19922;-77
2023/03/15 10:04:59;;;;;;;10.02;1.83;;;21.80;62.00;;;;;;7402969;19;19911;-73
2023/03/15 10:07:25;;;;;;;8.45;1.92;;;20.70;64.20;;;;;;7401972;19;19926;-74
2023/03/15 10:09:51;;;;;;;9.68;2.35;;;20.70;65.10;;;;;;7401320;19;19918;-73
2023/03/15 10:12:25;;;;;;;9.68;1.92;;;20.60;65.80;;;;;;7401504;19;19926;-74
2023/03/15 10:15:01;;;;;;;9.55;2.50;;;20.20;66.40;;;;;;7402872;19;20267;-74
2023/03/15 10:17:51;;;;;;;9.98;2.10;;;20.20;67.10;;;;;;7400954;19;19915;-73
2023/03/15 10:20:34;;;;;;;10.52;1.75;;;20.30;66.80;;;;;;7401902;19;19946;-74
2023/03/15 10:23:21;;;;;;;8.77;2.28;;;20.20;68.00;;;;;;7401202;19;19918;-73
2023/03/15 10:25:50;;;;;;;11.10;2.22;;;20.60;68.00;;;;;;7400902;19;19929;-74
2023/03/15 10:28:36;;;;;;;9.93;2.13;;;20.30;69.10;;;;;;7401630;19;19918;-73
2023/03/15 10:31:19;;;;;;;10.50;1.95;;;20.60;70.10;;;;;;7401298;19;19915;-75
2023/03/15 10:33:47;;;;;;;13.90;2.72;;;20.90;69.40;;;;;;7403248;19;19933;-72
2023/03/15 10:36:21;;;;;;;9.38;2.42;;;20.90;68.60;;;;;;7398943;19;19925;-74
2023/03/15 10:38:49;;;;;;;10.82;2.38;;;21.00;68.30;;;;;;7401815;19;19919;-73
2023/03/15 10:41:39;;;;;;;10.13;2.20;;;21.20;68.10;;;;;;7398443;19;19911;-73
2023/03/15 10:44:23;;;;;;;10.10;2.03;;;21.10;68.00;;;;;;7384479;19;19922;-73
2023/03/15 10:47:13;;;;;;;10.48;2.22;;;21.50;67.80;;;;;;7395953;19;19930;-74
2023/03/15 10:49:40;;;;;;;10.55;2.58;;;21.80;67.70;;;;;;7395487;19;19915;-73
2023/03/15 10:52:23;;;;;;;10.25;2.53;;;22.30;66.10;;;;;;7397296;19;20331;-73
2023/03/15 10:54:51;;;;;;;10.68;2.70;;;22.20;65.60;;;;;;7397076;19;19922;-73
2023/03/15 10:57:20;;;;;;;8.50;2.30;;;21.30;67.00;;;;;;7394252;19;19918;-73
2023/03/15 11:00:05;;;;;;;16.15;2.65;;;21.30;67.20;;;;;;7394728;19;20335;-72
2023/03/15 11:02:32;;;;;;;14.32;2.97;;;21.70;67.90;;;;;;7394134;19;20631;-73
2023/03/15 11:05:13;;;;;;;13.45;3.15;;;22.60;69.40;;;;;;7407064;19;19921;-73
2023/03/15 11:07:54;;;;;;;12.90;2.83;;;23.10;68.70;;;;;;7399615;19;19922;-74
2023/03/15 11:10:25;;;;;;;12.48;3.03;;;23.40;68.20;;;;;;7393997;19;19914;-73
2023/03/15 11:13:19;;;;;;;15.02;3.58;;;22.80;69.20;;;;;;7393419;19;20337;-73
2023/03/15 11:16:00;;;;;;;10.15;2.95;;;22.70;69.70;;;;;;7403907;19;19982;-72
2023/03/15 11:18:52;;;;;;;11.68;3.13;;;22.70;69.00;;;;;;7397604;19;19958;-74
2023/03/15 11:21:20;;;;;;;14.68;3.25;;;23.10;68.60;;;;;;7397146;19;19929;-73
2023/03/15 11:23:48;;;;;;;13.23;3.15;;;23.40;67.80;;;;;;7396625;19;19922;-73
2023/03/15 11:26:21;;;;;;;16.05;3.00;;;23.40;68.30;;;;;;7396492;19;19920;-74
2023/03/15 11:29:19;;;;;;;11.68;3.05;;;24.00;67.70;;;;;;7399191;19;20019;-73
2023/03/15 11:31:46;;;;;;;12.60;3.17;;;23.30;68.40;;;;;;7402113;19;19927;-74
2023/03/15 11:34:14;;;;;;;;;;;24.00;67.10;;;;;;7387028;19;19922;-72
2023/03/15 11:36:44;;;;;;;13.00;2.60;;;24.60;66.50;;;;;;7401353;19;19982;-72
2023/03/15 11:39:23;;;;;;;8.13;3.00;;;24.50;65.60;;;;;;7400389;19;19970;-73
2023/03/15 11:41:53;;;;;;;;;;;24.50;66.10;;;;;;7385778;19;19915;-73
2023/03/15 11:44:35;;;;;;;15.75;2.97;;;24.10;67.30;;;;;;7401834;19;19939;-73
2023/03/15 11:47:24;;;;;;;11.85;3.47;;;24.10;67.70;;;;;;7398969;19;20264;-73
2023/03/15 11:49:53;;;;;;;16.25;3.28;;;24.00;68.90;;;;;;7390534;19;19922;-73
2023/03/15 11:52:22;;;;;;;11.02;2.70;;;22.60;72.30;;;;;;7405526;19;20355;-76
2023/03/15 11:54:49;;;;;;;13.73;3.28;;;22.10;73.70;;;;;;7401548;19;19914;-73
2023/03/15 11:57:36;;;;;;;11.75;2.88;;;22.20;73.90;;;;;;7397485;19;20311;-74
2023/03/15 12:00:33;;;;;;;13.15;3.45;;;22.60;72.70;;;;;;7399056;19;19922;-73
2023/03/15 12:03:27;;;;;;;13.48;3.22;;;22.60;72.50;;;;;;7402575;19;20361;-73
2023/03/15 12:06:21;;;;;;;14.02;3.22;;;22.80;72.30;;;;;;7392118;19;19911;-73
2023/03/15 12:08:49;;;;;;;16.10;3.22;;;22.80;72.70;;;;;;7393560;19;19922;-73
2023/03/15 12:11:20;;;;;;;10.85;2.58;;;23.00;72.00;;;;;;7402451;19;19918;-73
2023/03/15 12:13:55;;;;;;;11.90;2.92;;;23.10;71.50;;;;;;7399302;19;19923;-74
2023/03/15 12:16:24;;;;;;;11.90;3.13;;;23.40;71.00;;;;;;7397640;19;19928;-73
2023/03/15 12:18:50;;;;;;;11.82;2.80;;;23.40;71.50;;;;;;7401452;19;20252;-73
2023/03/15 12:21:32;;;;;;;11.93;3.05;;;23.50;70.50;;;;;;7402781;19;19936;-72
2023/03/15 12:24:04;;;;;;;12.80;2.97;;;23.70;70.40;;;;;;7393697;19;19915;-73
2023/03/15 12:26:49;;;;;;;14.40;3.30;;;24.40;69.50;;;;;;7394060;19;19927;-75
2023/03/15 12:29:24;;;;;;;13.35;3.03;;;24.50;68.60;;;;;;7394428;19;19911;-74
2023/03/15 12:31:57;;;;;;;8.70;2.13;;;24.70;68.00;;;;;;7382141;19;19926;-74
2023/03/15 12:34:36;;;;;;;10.35;2.45;;;24.80;67.60;;;;;;7402574;19;19930;-73
2023/03/15 12:37:11;;;;;;;;;;;23.90;69.50;;;;;;7404075;19;19929;-73
2023/03/15 12:39:50;;;;;;;11.45;3.00;;;23.10;69.40;;;;;;7395770;19;19930;-74
2023/03/15 12:42:29;;;;;;;12.40;2.78;;;22.90;70.20;;;;;;7389985;19;20023;-74
2023/03/15 12:45:16;;;;;;;8.90;3.03;;;22.30;72.30;;;;;;7394773;19;19922;-73
2023/03/15 12:47:45;;;;;;;14.82;3.70;;;23.10;70.70;;;;;;7393027;19;20394;-74
2023/03/15 12:50:40;;;;;;;11.88;2.92;;;22.80;72.40;;;;;;7396074;19;20002;-73
2023/03/15 12:53:23;;;;;;;11.55;3.03;;;22.30;73.00;;;;;;7395020;19;19918;-73
2023/03/15 12:55:50;;;;;;;12.52;2.78;;;22.40;72.70;;;;;;7386046;19;19925;-73